Terminal Aerodrome Forecast
Issued by NWS Wakefield, VA

Home | Current Version | Previous Version | Text Only | Print | Product List | Glossary On
Versions: 1 2 3 4 5 6 7 8 9 10 11 12 13
000
FTUS41 KAKQ 312120 AAA
TAFRIC
TAF AMD
KRIC 312120Z 3121/0118 17008KT P6SM VCSH SCT035 OVC070
     FM010800 00000KT 5SM BR BKN250
     FM011300 06003KT P6SM SCT050=

USA.gov is the U.S. government's official web portal to all federal, state and local government web resources and services.